Time;durP1;ratioP1;P1;durP2;ratioP2;P2;SDS_P1;SDS_P2;PMS_P1;PMS_P2;Temp;Humidity;BMP_temperature;BMP_pressure;BME280_temperature;BME280_humidity;BME280_pressure;Samples;Min_cycle;Max_cycle;Signal;HPM_P1;HPM_P2
2022/02/28 00:01:14;;;;;;;41.90;21.17;;;;;;;-0.85;100.00;102830.50;5069882;28;20282;-72
2022/02/28 00:03:40;;;;;;;29.73;14.20;;;;;;;-0.86;100.00;102832.19;5068302;28;20217;-72
2022/02/28 00:06:07;;;;;;;33.27;13.93;;;;;;;-0.83;100.00;102836.59;5066630;28;20275;-72
2022/02/28 00:08:33;;;;;;;32.57;14.07;;;;;;;-0.83;100.00;102832.34;5070959;28;20446;-72
2022/02/28 00:11:00;;;;;;;26.40;12.93;;;;;;;-0.77;100.00;102835.25;5069364;28;20194;-72
2022/02/28 00:13:26;;;;;;;27.87;13.77;;;;;;;-0.74;100.00;102828.53;5067411;28;20217;-73
2022/02/28 00:15:55;;;;;;;30.60;13.27;;;;;;;-0.71;100.00;102826.16;5068816;28;20214;-73
2022/02/28 00:18:21;;;;;;;30.23;13.83;;;;;;;-0.71;100.00;102821.91;5064847;28;20226;-73
2022/02/28 00:20:47;;;;;;;31.90;13.70;;;;;;;-0.65;100.00;102821.34;5066483;28;20693;-72
2022/02/28 00:23:14;;;;;;;29.50;13.00;;;;;;;-0.65;100.00;102819.69;5070030;28;20195;-72
2022/02/28 00:25:40;;;;;;;29.40;13.77;;;;;;;-0.67;100.00;102817.81;5071829;28;20254;-71
2022/02/28 00:28:07;;;;;;;32.57;13.83;;;;;;;-0.72;100.00;102816.69;5079054;28;20668;-71
2022/02/28 00:30:34;;;;;;;28.33;13.17;;;;;;;-0.78;100.00;102828.34;5075959;28;20626;-75
2022/02/28 00:33:05;;;;;;;30.63;13.67;;;;;;;-0.80;100.00;102819.72;5076341;28;20227;-74
2022/02/28 00:35:34;;;;;;;27.43;12.20;;;;;;;-0.79;100.00;102830.88;5074563;28;20199;-72
2022/02/28 00:38:01;;;;;;;29.10;12.67;;;;;;;-0.80;100.00;102832.50;5075593;28;20209;-75
2022/02/28 00:40:27;;;;;;;27.97;12.97;;;;;;;-0.83;100.00;102834.91;5072313;28;20814;-74
2022/02/28 00:42:54;;;;;;;28.70;13.87;;;;;;;-0.83;100.00;102836.59;5080170;28;20198;-73
2022/02/28 00:45:20;;;;;;;29.67;12.97;;;;;;;-0.81;100.00;102828.22;5078244;28;20206;-72
2022/02/28 00:47:47;;;;;;;27.83;13.13;;;;;;;-0.78;100.00;102830.03;5099966;27;20258;-72
2022/02/28 00:50:15;;;;;;;26.63;12.43;;;;;;;-0.75;100.00;102827.66;5067077;28;20210;-74
2022/02/28 00:52:42;;;;;;;28.33;13.63;;;;;;;-0.73;100.00;102823.50;5066857;28;20203;-74
2022/02/28 00:55:11;;;;;;;26.57;13.10;;;;;;;-0.74;100.00;102821.72;5071540;28;20546;-74
2022/02/28 00:57:39;;;;;;;32.83;13.47;;;;;;;-0.78;100.00;102827.47;5066974;28;20218;-74
2022/02/28 01:00:08;;;;;;;29.63;13.27;;;;;;;-0.76;100.00;102825.88;5070769;28;20196;-74
2022/02/28 01:02:35;;;;;;;31.30;12.93;;;;;;;-0.78;100.00;102823.22;5069362;28;20499;-74
2022/02/28 01:05:01;;;;;;;27.87;12.70;;;;;;;-0.79;100.00;102824.06;5072952;28;20199;-74
2022/02/28 01:07:29;;;;;;;26.97;12.03;;;;;;;-0.77;100.00;102826.69;5070150;28;20321;-74
2022/02/28 01:09:56;;;;;;;25.57;11.47;;;;;;;-0.78;100.00;102835.16;5104694;28;20445;-75
2022/02/28 01:12:22;;;;;;;27.30;11.83;;;;;;;-0.72;100.00;102819.25;5071786;28;20265;-75
2022/02/28 01:14:49;;;;;;;25.37;11.70;;;;;;;-0.70;100.00;102820.22;5079204;28;20200;-75
2022/02/28 01:17:16;;;;;;;28.47;12.17;;;;;;;-0.75;100.00;102819.97;5063930;28;20694;-75
2022/02/28 01:19:43;;;;;;;24.70;12.10;;;;;;;-0.75;100.00;102825.09;5097052;28;20218;-75
2022/02/28 01:22:11;;;;;;;23.27;11.50;;;;;;;-0.71;100.00;102816.78;5074706;28;20195;-73
2022/02/28 01:24:40;;;;;;;24.07;11.87;;;;;;;-0.73;100.00;102812.38;5076073;28;20189;-75
2022/02/28 01:27:07;;;;;;;27.10;12.80;;;;;;;-0.73;100.00;102813.25;5089457;28;20199;-74
2022/02/28 01:29:33;;;;;;;28.93;12.37;;;;;;;-0.74;100.00;102806.34;5076484;28;20238;-73
2022/02/28 01:32:01;;;;;;;25.93;12.03;;;;;;;-0.75;100.00;102803.72;5090032;28;20281;-73
2022/02/28 01:34:27;;;;;;;26.37;12.40;;;;;;;-0.73;100.00;102803.00;5078873;28;20222;-72
2022/02/28 01:36:54;;;;;;;28.63;12.70;;;;;;;-0.83;100.00;102801.59;5090695;28;20246;-73
2022/02/28 01:39:21;;;;;;;22.50;11.33;;;;;;;-0.85;100.00;102797.22;5064497;28;20305;-73
2022/02/28 01:41:48;;;;;;;28.00;13.67;;;;;;;-0.89;100.00;102808.09;5065635;28;20213;-73
2022/02/28 01:44:15;;;;;;;25.57;11.47;;;;;;;-0.89;100.00;102810.66;5068680;28;20282;-73
2022/02/28 01:46:42;;;;;;;23.23;11.47;;;;;;;-0.89;100.00;102800.41;5065136;28;20190;-73
2022/02/28 01:49:08;;;;;;;23.13;11.50;;;;;;;-0.92;100.00;102806.22;5067955;28;20242;-73
2022/02/28 01:51:36;;;;;;;24.60;12.23;;;;;;;-0.93;100.00;102803.56;5101390;27;20281;-73
2022/02/28 01:54:03;;;;;;;24.83;12.20;;;;;;;-1.01;100.00;102801.47;5104786;27;20267;-73
2022/02/28 01:56:29;;;;;;;25.00;11.90;;;;;;;-1.01;100.00;102798.91;5084073;28;20226;-73
2022/02/28 01:58:57;;;;;;;26.50;12.23;;;;;;;-0.99;100.00;102799.88;5067316;28;20219;-73
2022/02/28 02:01:24;;;;;;;27.27;11.63;;;;;;;-1.01;100.00;102809.16;5064578;28;20207;-73
2022/02/28 02:03:51;;;;;;;23.67;12.50;;;;;;;-1.05;100.00;102796.09;5068425;28;20277;-73
2022/02/28 02:06:19;;;;;;;26.00;12.00;;;;;;;-1.02;100.00;102796.25;5062005;28;20612;-73
2022/02/28 02:08:45;;;;;;;23.23;11.40;;;;;;;-1.09;100.00;102789.03;5078246;28;20223;-73
2022/02/28 02:11:13;;;;;;;29.07;12.53;;;;;;;-1.14;100.00;102783.66;5077307;28;20248;-73
2022/02/28 02:13:40;;;;;;;27.93;12.07;;;;;;;-1.15;100.00;102787.00;5065018;28;20237;-73
2022/02/28 02:16:08;;;;;;;22.67;10.67;;;;;;;-1.22;100.00;102782.34;5079118;28;20581;-73
2022/02/28 02:18:35;;;;;;;25.07;12.07;;;;;;;-1.22;100.00;102782.34;5062038;28;20226;-73
2022/02/28 02:21:03;;;;;;;23.67;10.70;;;;;;;-1.22;100.00;102777.22;5065950;28;20203;-73
2022/02/28 02:23:30;;;;;;;29.97;11.80;;;;;;;-1.27;100.00;102774.38;5060710;28;20199;-73
2022/02/28 02:25:59;;;;;;;22.57;11.70;;;;;;;-1.33;100.00;102774.06;5083487;28;20805;-73
2022/02/28 02:28:27;;;;;;;24.43;10.83;;;;;;;-1.40;100.00;102772.81;5062593;28;20211;-73
2022/02/28 02:30:56;;;;;;;23.43;11.17;;;;;;;-1.46;100.00;102777.59;5061204;28;20188;-74
2022/02/28 02:33:25;;;;;;;25.73;10.80;;;;;;;-1.42;100.00;102776.09;5076988;28;20705;-73
2022/02/28 02:35:59;;;;;;;24.40;11.50;;;;;;;-1.50;100.00;102777.31;5069630;28;20302;-72
2022/02/28 02:38:28;;;;;;;28.03;12.13;;;;;;;-1.56;100.00;102777.84;5081819;28;20214;-73
2022/02/28 02:40:55;;;;;;;26.83;11.03;;;;;;;-1.54;100.00;102763.47;5066826;28;20278;-73
2022/02/28 02:43:22;;;;;;;26.60;11.67;;;;;;;-1.58;100.00;102767.53;5096878;28;20221;-72
2022/02/28 02:45:48;;;;;;;49.37;23.00;;;;;;;-1.64;100.00;102763.72;5079726;28;20444;-72
2022/02/28 02:48:17;;;;;;;32.63;15.13;;;;;;;-1.64;100.00;102767.16;5077631;28;20276;-72
2022/02/28 02:50:46;;;;;;;31.23;13.63;;;;;;;-1.68;100.00;102764.34;5105830;27;20202;-72
2022/02/28 02:53:13;;;;;;;40.53;18.20;;;;;;;-1.78;100.00;102770.59;5106498;27;20218;-72
2022/02/28 02:55:43;;;;;;;29.77;13.80;;;;;;;-1.83;100.00;102774.56;5078824;28;20596;-73
2022/02/28 02:58:13;;;;;;;34.13;16.87;;;;;;;-1.84;100.00;102775.38;5070332;28;20226;-73
2022/02/28 03:00:42;;;;;;;64.33;29.67;;;;;;;-1.85;100.00;102771.91;5093479;28;20237;-72
2022/02/28 03:03:11;;;;;;;46.83;21.07;;;;;;;-1.85;100.00;102766.78;5101778;28;20281;-72
2022/02/28 03:05:39;;;;;;;39.93;18.43;;;;;;;-1.83;100.00;102766.88;5086501;28;20205;-72
2022/02/28 03:08:05;;;;;;;47.90;19.00;;;;;;;-1.82;100.00;102769.53;5072650;28;20233;-73
2022/02/28 03:10:32;;;;;;;31.67;13.30;;;;;;;-1.82;100.00;102766.97;5074100;28;20298;-72
2022/02/28 03:13:01;;;;;;;29.43;13.37;;;;;;;-1.83;100.00;102767.78;5096296;28;20276;-72
2022/02/28 03:15:28;;;;;;;46.37;21.30;;;;;;;-1.85;100.00;102766.78;5081524;28;20194;-72
2022/02/28 03:17:56;;;;;;;100.83;42.77;;;;;;;-1.85;100.00;102764.22;5066432;28;20222;-73
2022/02/28 03:20:23;;;;;;;55.70;26.17;;;;;;;-1.84;100.00;102758.34;5075447;28;20197;-73
2022/02/28 03:22:50;;;;;;;40.27;17.27;;;;;;;-1.82;100.00;102763.53;5093824;28;20227;-73
2022/02/28 03:25:18;;;;;;;40.53;15.23;;;;;;;-1.85;100.00;102760.81;5080465;28;20214;-73
2022/02/28 03:27:53;;;;;;;63.37;27.47;;;;;;;-1.86;100.00;102759.94;5093088;28;20225;-73
2022/02/28 03:30:21;;;;;;;44.93;19.63;;;;;;;-1.85;100.00;102759.13;5067102;28;20199;-73
2022/02/28 03:32:48;;;;;;;57.47;27.10;;;;;;;-1.87;100.00;102755.59;5063947;28;20210;-73
2022/02/28 03:35:14;;;;;;;32.87;14.90;;;;;;;-1.88;100.00;102748.72;5108671;28;20194;-72
2022/02/28 03:37:41;;;;;;;30.33;13.97;;;;;;;-1.89;100.00;102754.63;5068282;28;20466;-73
2022/02/28 03:40:10;;;;;;;28.27;12.93;;;;;;;-1.93;100.00;102748.44;5106286;28;20200;-72
2022/02/28 03:42:37;;;;;;;35.67;15.70;;;;;;;-1.94;100.00;102749.22;5067443;28;20206;-72
2022/02/28 03:45:05;;;;;;;42.43;19.33;;;;;;;-1.94;100.00;102743.25;5107057;28;20678;-72
2022/02/28 03:47:34;;;;;;;29.97;13.70;;;;;;;-1.95;100.00;102738.94;5065574;28;20570;-72
2022/02/28 03:50:19;;;;;;;36.50;13.80;;;;;;;-1.98;100.00;102744.72;5060809;28;20545;-73
2022/02/28 03:52:45;;;;;;;33.33;14.07;;;;;;;-1.98;100.00;102731.06;5081419;28;20290;-73
2022/02/28 03:55:21;;;;;;;31.07;13.60;;;;;;;-1.99;100.00;102731.84;5101282;28;20198;-73
2022/02/28 03:57:47;;;;;;;31.73;13.87;;;;;;;-2.00;100.00;102732.66;5066767;28;20226;-73
2022/02/28 04:00:15;;;;;;;38.23;15.60;;;;;;;-2.03;100.00;102725.69;5097044;28;20257;-73
2022/02/28 04:02:44;;;;;;;32.10;14.13;;;;;;;-2.03;100.00;102732.47;5092635;28;20202;-73
2022/02/28 04:05:11;;;;;;;30.53;13.93;;;;;;;-2.00;100.00;102725.88;5072018;28;20210;-73
2022/02/28 04:07:38;;;;;;;36.57;16.53;;;;;;;-2.01;100.00;102733.44;5096684;28;20202;-73
2022/02/28 04:10:06;;;;;;;41.67;16.90;;;;;;;-2.03;100.00;102730.78;5055782;28;20713;-73
2022/02/28 04:12:35;;;;;;;35.50;16.20;;;;;;;-2.00;100.00;102727.56;5097804;28;20214;-73
2022/02/28 04:15:02;;;;;;;39.17;18.10;;;;;;;-2.00;100.00;102725.88;5098241;28;20202;-73
2022/02/28 04:17:29;;;;;;;35.80;15.80;;;;;;;-1.96;100.00;102721.81;5061569;28;20241;-73
2022/02/28 04:20:15;;;;;;;36.03;14.13;;;;;;;-1.95;100.00;102723.59;5062418;28;20834;-73
2022/02/28 04:22:41;;;;;;;29.53;13.43;;;;;;;-1.96;100.00;102722.69;5061940;28;20235;-73
2022/02/28 04:25:09;;;;;;;30.00;14.00;;;;;;;-2.02;100.00;102718.88;5062671;28;20203;-73
2022/02/28 04:27:36;;;;;;;31.90;14.00;;;;;;;-2.02;100.00;102724.00;5075706;28;20199;-73
2022/02/28 04:30:07;;;;;;;31.33;15.73;;;;;;;-2.02;100.00;102726.56;5093361;28;20573;-73
2022/02/28 04:32:33;;;;;;;33.73;15.20;;;;;;;-2.03;100.00;102727.38;5070862;28;20195;-73
2022/02/28 04:35:03;;;;;;;30.50;15.10;;;;;;;-2.03;100.00;102725.69;5078357;28;20245;-73
2022/02/28 04:37:34;;;;;;;38.77;14.97;;;;;;;-2.03;100.00;102725.69;5068482;28;20211;-73
2022/02/28 04:40:03;;;;;;;30.63;13.63;;;;;;;-2.02;100.00;102719.78;5105376;27;20285;-73
2022/02/28 04:42:33;;;;;;;34.93;14.37;;;;;;;-2.03;100.00;102725.69;5108835;28;20592;-73
2022/02/28 04:44:59;;;;;;;30.23;13.30;;;;;;;-2.01;100.00;102715.53;5101344;27;20282;-73
2022/02/28 04:47:25;;;;;;;31.23;13.60;;;;;;;-2.05;100.00;102713.63;5108653;27;20193;-71
2022/02/28 04:50:24;;;;;;;31.47;13.67;;;;;;;-2.06;100.00;102715.25;5077467;28;20237;-72
2022/02/28 04:52:52;;;;;;;34.30;13.67;;;;;;;-2.04;100.00;102715.38;5089156;28;20206;-73
2022/02/28 04:55:22;;;;;;;32.80;13.80;;;;;;;-2.04;100.00;102716.25;5089254;28;20187;-73
2022/02/28 04:57:50;;;;;;;31.77;13.27;;;;;;;-2.07;100.00;102712.66;5070931;28;20222;-73
2022/02/28 05:00:36;;;;;;;31.00;13.40;;;;;;;-2.05;100.00;102713.63;5071843;28;20681;-71
2022/02/28 05:03:03;;;;;;;29.53;13.57;;;;;;;-2.07;100.00;102710.09;5107229;27;20226;-73
2022/02/28 05:05:30;;;;;;;32.97;13.97;;;;;;;-2.07;100.00;102712.66;5105908;27;20212;-74
2022/02/28 05:07:57;;;;;;;30.83;13.43;;;;;;;-2.11;100.00;102717.56;5067065;28;20279;-73
2022/02/28 05:10:25;;;;;;;29.73;13.60;;;;;;;-2.10;100.00;102721.00;5104377;27;20461;-72
2022/02/28 05:12:58;;;;;;;33.97;13.87;;;;;;;-2.14;100.00;102724.19;5072272;28;20190;-72
2022/02/28 05:15:25;;;;;;;27.90;12.80;;;;;;;-2.16;100.00;102731.75;5072738;28;20190;-71
2022/02/28 05:17:52;;;;;;;30.30;13.87;;;;;;;-2.16;100.00;102733.44;5104200;27;20322;-73
2022/02/28 05:20:19;;;;;;;34.00;14.43;;;;;;;-2.12;100.00;102733.69;5074483;28;20191;-72
2022/02/28 05:22:45;;;;;;;28.23;13.73;;;;;;;-2.13;100.00;102731.94;5089437;28;20207;-71
2022/02/28 05:25:14;;;;;;;25.27;11.97;;;;;;;-2.13;100.00;102731.03;5070202;28;20226;-73
2022/02/28 05:27:42;;;;;;;30.23;13.63;;;;;;;-2.13;100.00;102733.59;5069589;28;20317;-73
2022/02/28 05:30:10;;;;;;;26.93;12.70;;;;;;;-2.15;100.00;102738.59;5087728;28;20198;-73
2022/02/28 05:32:41;;;;;;;29.00;12.77;;;;;;;-2.14;100.00;102752.28;5073453;28;20209;-72
2022/02/28 05:35:21;;;;;;;28.47;12.83;;;;;;;-2.13;100.00;102744.72;5104982;28;20915;-73
2022/02/28 05:38:01;;;;;;;31.60;12.93;;;;;;;-2.14;100.00;102752.28;5083199;28;20222;-73
2022/02/28 05:40:29;;;;;;;28.33;13.17;;;;;;;-2.18;100.00;102752.88;5075346;28;20203;-72
2022/02/28 05:42:58;;;;;;;26.70;13.07;;;;;;;-2.16;100.00;102752.19;5104175;27;20236;-73
2022/02/28 05:45:25;;;;;;;32.03;13.23;;;;;;;-2.29;100.00;102760.81;5087453;28;20198;-72
2022/02/28 05:48:03;;;;;;;24.60;12.40;;;;;;;-2.29;100.00;102763.38;5083205;28;20873;-71
2022/02/28 05:50:30;;;;;;;27.30;12.33;;;;;;;-2.36;100.00;102762.88;5070076;28;20197;-72
2022/02/28 05:52:56;;;;;;;27.83;13.97;;;;;;;-2.39;100.00;102766.16;5071928;28;20241;-72
2022/02/28 05:55:23;;;;;;;28.43;13.80;;;;;;;-2.42;100.00;102765.94;5074219;28;20198;-72
2022/02/28 05:57:50;;;;;;;28.10;13.23;;;;;;;-2.48;100.00;102768.13;5070526;28;20986;-72
2022/02/28 06:00:17;;;;;;;29.40;13.07;;;;;;;-2.50;100.00;102772.25;5075004;28;20206;-73
2022/02/28 06:02:44;;;;;;;33.33;13.60;;;;;;;-2.51;100.00;102771.38;5069601;28;20256;-73
2022/02/28 06:05:10;;;;;;;31.30;14.80;;;;;;;-2.53;100.00;102759.31;5073148;28;20199;-72
2022/02/28 06:07:37;;;;;;;29.10;13.20;;;;;;;-2.54;100.00;102752.44;5069835;28;20198;-72
2022/02/28 06:10:04;;;;;;;26.57;14.30;;;;;;;-2.52;100.00;102750.84;5071765;28;20209;-71
2022/02/28 06:12:30;;;;;;;33.03;15.93;;;;;;;-2.53;100.00;102752.53;5070676;28;20194;-73
2022/02/28 06:14:58;;;;;;;46.40;20.23;;;;;;;-2.50;100.00;102762.03;5066710;28;20230;-73
2022/02/28 06:17:24;;;;;;;31.03;14.73;;;;;;;-2.54;100.00;102771.19;5063370;28;20203;-72
2022/02/28 06:19:51;;;;;;;31.13;14.30;;;;;;;-2.54;100.00;102763.53;5072958;28;20202;-72
2022/02/28 06:22:17;;;;;;;30.97;14.57;;;;;;;-2.55;100.00;102771.09;5070426;28;20205;-73
2022/02/28 06:24:44;;;;;;;50.83;22.33;;;;;;;-2.50;100.00;102769.69;5066298;28;20206;-73
2022/02/28 06:27:10;;;;;;;34.73;15.83;;;;;;;-2.48;100.00;102768.13;5066942;28;20187;-72
2022/02/28 06:29:36;;;;;;;27.60;13.93;;;;;;;-2.41;100.00;102772.84;5071368;28;20222;-73
2022/02/28 06:32:05;;;;;;;35.40;15.23;;;;;;;-2.50;100.00;102785.03;5069264;28;20197;-72
2022/02/28 06:34:31;;;;;;;33.93;17.60;;;;;;;-2.56;100.00;102792.31;5070769;28;20208;-73
2022/02/28 06:36:58;;;;;;;37.63;17.83;;;;;;;-2.51;100.00;102785.84;5063161;28;20253;-73
2022/02/28 06:39:25;;;;;;;39.67;14.80;;;;;;;-2.39;100.00;102772.91;5063827;28;20229;-73
2022/02/28 06:41:52;;;;;;;35.03;14.60;;;;;;;-2.29;100.00;102776.16;5065832;28;20233;-72
2022/02/28 06:44:19;;;;;;;38.43;16.00;;;;;;;-2.22;100.00;102787.59;5067002;28;20202;-73
2022/02/28 06:46:45;;;;;;;33.47;15.17;;;;;;;-2.16;100.00;102787.09;5065737;28;20278;-73
2022/02/28 06:49:13;;;;;;;31.37;14.13;;;;;;;-2.11;100.00;102788.25;5064994;28;20219;-73
2022/02/28 06:51:39;;;;;;;31.37;14.93;;;;;;;-2.08;100.00;102780.75;5062377;28;20233;-73
2022/02/28 06:54:06;;;;;;;35.53;14.50;;;;;;;-2.05;100.00;102795.41;5062852;28;20205;-73
2022/02/28 06:56:32;;;;;;;35.30;14.23;;;;;;;-2.03;100.00;102798.94;5067163;28;20206;-72
2022/02/28 06:58:58;;;;;;;32.10;14.70;;;;;;;-2.19;100.00;102795.47;5067882;28;20223;-72
2022/02/28 07:01:25;;;;;;;27.27;13.70;;;;;;;-2.28;100.00;102797.47;5065514;28;20210;-72
2022/02/28 07:04:18;;;;;;;29.73;14.53;;;;;;;-2.33;100.00;102801.41;5081635;28;20701;-72
2022/02/28 07:06:44;;;;;;;45.03;20.10;;;;;;;-2.40;100.00;102805.25;5067065;28;20210;-73
2022/02/28 07:09:10;;;;;;;30.10;13.70;;;;;;;-2.51;100.00;102811.38;5065549;28;20215;-72
2022/02/28 07:11:37;;;;;;;35.07;14.17;;;;;;;-2.45;100.00;102806.63;5091739;27;20203;-72
2022/02/28 07:14:04;;;;;;;27.40;13.13;;;;;;;-2.41;100.00;102815.38;5067162;28;20202;-72
2022/02/28 07:16:30;;;;;;;35.83;16.13;;;;;;;-2.44;100.00;102830.53;5064297;28;20198;-72
2022/02/28 07:18:57;;;;;;;33.83;14.80;;;;;;;-2.37;100.00;102820.78;5060111;28;20263;-73
2022/02/28 07:21:24;;;;;;;29.00;14.37;;;;;;;-2.34;100.00;102830.28;5065821;28;20202;-71
2022/02/28 07:23:51;;;;;;;31.47;14.83;;;;;;;-2.43;100.00;102833.16;5067899;28;20198;-73
2022/02/28 07:26:17;;;;;;;37.63;14.53;;;;;;;-2.31;100.00;102826.25;5067838;28;20191;-73
2022/02/28 07:28:44;;;;;;;34.93;15.53;;;;;;;-2.25;100.00;102833.44;5069927;28;20569;-72
2022/02/28 07:31:10;;;;;;;33.53;13.93;;;;;;;-2.24;100.00;102834.31;5067551;28;20201;-72
2022/02/28 07:33:37;;;;;;;29.93;14.03;;;;;;;-2.22;100.00;102836.16;5068346;28;20817;-72
2022/02/28 07:36:04;;;;;;;32.47;14.50;;;;;;;-2.17;100.00;102836.44;5067636;28;20198;-73
2022/02/28 07:38:33;;;;;;;34.43;15.33;;;;;;;-2.05;100.00;102842.31;5097232;28;20325;-72
2022/02/28 07:40:59;;;;;;;34.83;15.23;;;;;;;-1.88;100.00;102839.88;5063052;28;20282;-72
2022/02/28 07:43:26;;;;;;;29.90;14.37;;;;;;;-1.83;100.00;102841.03;5072566;28;20846;-72
2022/02/28 07:45:52;;;;;;;29.87;13.97;;;;;;;-1.76;100.00;102845.72;5068693;28;20561;-71
2022/02/28 07:48:18;;;;;;;34.27;15.17;;;;;;;-1.70;100.00;102847.81;5067944;28;20225;-72
2022/02/28 07:50:45;;;;;;;33.63;14.63;;;;;;;-1.61;100.00;102849.22;5062580;28;20718;-72
2022/02/28 07:53:11;;;;;;;29.87;14.43;;;;;;;-1.57;100.00;102845.16;5064495;28;20203;-73
2022/02/28 07:55:39;;;;;;;35.23;15.73;;;;;;;-1.47;100.00;102844.03;5059002;28;20195;-73
2022/02/28 07:58:05;;;;;;;30.43;13.37;;;;;;;-1.46;100.00;102844.13;5062884;28;20226;-73
2022/02/28 08:00:32;;;;;;;29.23;14.50;;;;;;;-1.61;100.00;102851.78;5065855;28;20195;-73
2022/02/28 08:02:59;;;;;;;26.77;13.27;;;;;;;-1.51;100.00;102853.22;5067229;28;20615;-72
2022/02/28 08:05:25;;;;;;;31.30;14.37;;;;;;;-1.41;100.00;102855.50;5083033;28;20199;-72
2022/02/28 08:07:52;;;;;;;32.13;15.13;;;;;;;-1.45;100.00;102852.69;5068215;28;20222;-72
2022/02/28 08:10:19;;;;;;;30.87;14.00;;;;;;;-1.48;100.00;102861.03;5070291;28;20203;-73
2022/02/28 08:12:47;;;;;;;23.57;12.17;;;;;;;-1.48;100.00;102857.63;5070980;28;20205;-71
2022/02/28 08:15:13;;;;;;;29.80;13.73;;;;;;;-1.50;100.00;102865.19;5106393;27;20226;-72
2022/02/28 08:17:40;;;;;;;33.27;15.50;;;;;;;-1.47;100.00;102867.06;5065932;28;20214;-73
2022/02/28 08:20:09;;;;;;;30.30;14.80;;;;;;;-1.47;100.00;102870.50;5067200;28;20225;-73
2022/02/28 08:22:35;;;;;;;30.17;14.33;;;;;;;-1.37;100.00;102862.56;5067299;28;20219;-72
2022/02/28 08:25:02;;;;;;;31.60;15.00;;;;;;;-1.58;100.00;102861.31;5061969;28;20194;-73
2022/02/28 08:27:28;;;;;;;33.07;17.10;;;;;;;-1.56;100.00;102864.84;5069576;28;20744;-72
2022/02/28 08:29:56;;;;;;;35.37;16.67;;;;;;;-1.62;100.00;102864.47;5068805;28;20198;-72
2022/02/28 08:32:22;;;;;;;27.73;13.47;;;;;;;-1.67;100.00;102871.88;5083463;28;20190;-73
2022/02/28 08:34:49;;;;;;;29.93;14.00;;;;;;;-1.68;100.00;102866.69;5066262;28;20274;-73
2022/02/28 08:37:15;;;;;;;31.27;14.77;;;;;;;-1.77;100.00;102870.44;5068586;28;20710;-71
2022/02/28 08:39:41;;;;;;;27.60;13.57;;;;;;;-1.68;100.00;102872.66;5070363;28;20698;-73
2022/02/28 08:42:08;;;;;;;29.37;14.13;;;;;;;-1.86;100.00;102872.44;5056648;28;20596;-73
2022/02/28 08:44:34;;;;;;;28.33;14.70;;;;;;;-1.89;100.00;102877.38;5058374;28;20213;-73
2022/02/28 08:47:02;;;;;;;27.30;13.33;;;;;;;-1.83;100.00;102879.41;5064029;28;20203;-73
2022/02/28 08:49:28;;;;;;;37.00;15.60;;;;;;;-1.91;100.00;102871.28;5060896;28;20222;-72
2022/02/28 08:51:55;;;;;;;31.10;15.40;;;;;;;-1.84;100.00;102877.66;5066655;28;20194;-72
2022/02/28 08:54:21;;;;;;;28.63;14.73;;;;;;;-1.76;100.00;102877.34;5066952;28;20569;-73
2022/02/28 08:56:48;;;;;;;29.37;13.93;;;;;;;-1.76;100.00;102873.88;5066772;28;20195;-73
2022/02/28 08:59:14;;;;;;;27.43;14.03;;;;;;;-1.68;100.00;102874.34;5069804;28;20214;-73
2022/02/28 09:01:41;;;;;;;28.07;14.00;;;;;;;-1.48;100.00;102881.53;5065425;28;20287;-73
2022/02/28 09:04:09;;;;;;;25.80;13.27;;;;;;;-1.47;100.00;102888.41;5083824;28;20204;-73
2022/02/28 09:06:35;;;;;;;26.33;13.20;;;;;;;-1.38;100.00;102878.72;5066342;28;21086;-73
2022/02/28 09:09:02;;;;;;;31.57;14.00;;;;;;;-1.54;100.00;102888.84;5067538;28;20229;-72
2022/02/28 09:11:28;;;;;;;27.17;13.70;;;;;;;-1.45;100.00;102893.63;5070875;28;20209;-72
2022/02/28 09:13:55;;;;;;;29.67;13.93;;;;;;;-1.45;100.00;102888.50;5068503;28;20202;-73
2022/02/28 09:16:22;;;;;;;26.60;13.60;;;;;;;-1.55;100.00;102887.97;5067790;28;20206;-73
2022/02/28 09:18:49;;;;;;;29.77;14.13;;;;;;;-1.57;100.00;102886.97;5071635;28;20301;-73
2022/02/28 09:21:17;;;;;;;29.70;14.30;;;;;;;-1.50;100.00;102883.09;5067784;28;20210;-71
2022/02/28 09:23:43;;;;;;;28.17;14.47;;;;;;;-1.47;100.00;102882.44;5071941;28;20218;-73
2022/02/28 09:26:10;;;;;;;28.77;14.30;;;;;;;-1.36;100.00;102884.81;5070165;28;20218;-73
2022/02/28 09:28:36;;;;;;;25.73;14.20;;;;;;;-1.38;100.00;102881.28;5066835;28;20222;-73
2022/02/28 09:31:03;;;;;;;31.53;13.87;;;;;;;-1.39;100.00;102884.66;5099821;27;20565;-73
2022/02/28 09:33:29;;;;;;;26.83;13.83;;;;;;;-1.23;100.00;102891.53;5072899;28;20244;-73
2022/02/28 09:35:56;;;;;;;27.77;14.37;;;;;;;-0.98;100.00;102892.97;5068718;28;20222;-72
2022/02/28 09:38:24;;;;;;;29.23;14.03;;;;;;;-0.76;100.00;102900.19;5073842;28;20243;-73
2022/02/28 09:40:54;;;;;;;32.10;15.03;;;;;;;-0.66;100.00;102892.22;5070039;28;20204;-73
2022/02/28 09:43:41;;;;;;;32.10;14.83;;;;;;;-0.34;100.00;102900.81;5067538;28;20739;-73
2022/02/28 09:46:26;;;;;;;26.47;13.33;;;;;;;-0.11;100.00;102894.38;5061642;28;20204;-73
2022/02/28 09:49:12;;;;;;;26.67;14.27;;;;;;;-0.10;100.00;102906.41;5065580;28;20231;-73
2022/02/28 09:51:58;;;;;;;33.07;14.20;;;;;;;-0.10;100.00;102903.84;5062919;28;20256;-73
2022/02/28 09:54:49;;;;;;;29.83;14.27;;;;;;;0.11;100.00;102904.09;5072037;28;20676;-73
2022/02/28 09:57:53;;;;;;;29.77;13.73;;;;;;;0.12;100.00;102912.69;5072125;28;20226;-72
2022/02/28 10:00:43;;;;;;;30.57;15.70;;;;;;;0.44;100.00;102910.91;5094777;27;20251;-73
2022/02/28 10:03:11;;;;;;;30.73;13.77;;;;;;;0.36;100.00;102908.84;5087334;28;20195;-72
2022/02/28 10:05:37;;;;;;;33.87;15.23;;;;;;;0.17;100.00;102914.69;5089038;28;20274;-73
2022/02/28 10:08:06;;;;;;;27.40;14.00;;;;;;;-0.04;100.00;102913.53;5062433;28;20227;-72
2022/02/28 10:10:35;;;;;;;31.67;15.93;;;;;;;-0.22;100.00;102908.31;5064079;28;20674;-73
2022/02/28 10:13:02;;;;;;;61.17;43.87;;;;;;;-0.30;100.00;102917.25;5069965;28;20743;-73
2022/02/28 10:15:29;;;;;;;29.83;14.47;;;;;;;-0.34;100.00;102911.06;5066689;28;20212;-73
2022/02/28 10:17:57;;;;;;;29.97;14.27;;;;;;;-0.41;100.00;102916.66;5064683;28;20240;-73
2022/02/28 10:20:26;;;;;;;26.07;14.33;;;;;;;-0.24;100.00;102912.47;5063868;28;20297;-73
2022/02/28 10:22:54;;;;;;;35.10;16.50;;;;;;;-0.21;100.00;102904.94;5065278;28;20692;-73
2022/02/28 10:25:33;;;;;;;44.87;18.03;;;;;;;-0.40;100.00;102903.06;5061882;28;20202;-73
2022/02/28 10:28:13;;;;;;;78.30;28.90;;;;;;;-0.34;100.00;102905.06;5081302;28;20242;-72
2022/02/28 10:31:08;;;;;;;30.20;14.47;;;;;;;-0.44;100.00;102906.22;5028668;28;20211;-73
2022/02/28 10:33:56;;;;;;;29.77;14.47;;;;;;;-0.41;100.00;102899.59;5064514;28;20207;-73
2022/02/28 10:36:28;;;;;;;34.03;15.00;;;;;;;-0.43;100.00;102908.88;5062562;28;20221;-73
2022/02/28 10:39:00;;;;;;;26.60;13.53;;;;;;;-0.40;100.00;102901.38;5063670;28;20239;-72
2022/02/28 10:41:30;;;;;;;29.33;13.67;;;;;;;-0.32;100.00;102894.09;5067896;28;20229;-72
2022/02/28 10:44:00;;;;;;;29.90;14.07;;;;;;;-0.28;99.69;102893.47;5066652;28;20202;-73
2022/02/28 10:46:30;;;;;;;24.50;12.60;;;;;;;-0.20;96.80;102905.00;5098306;28;20207;-73
2022/02/28 10:49:01;;;;;;;26.90;12.63;;;;;;;-0.22;95.74;102905.72;5065625;28;20229;-73
2022/02/28 10:51:28;;;;;;;26.20;12.33;;;;;;;-0.13;97.73;102895.09;5065200;28;20574;-72
2022/02/28 10:54:09;;;;;;;26.83;12.27;;;;;;;-0.03;98.12;102895.66;5100093;27;20922;-73
2022/02/28 10:56:51;;;;;;;196.40;56.27;;;;;;;-0.05;96.66;102894.72;5065371;28;20675;-73
2022/02/28 10:59:21;;;;;;;26.43;12.67;;;;;;;-0.01;97.47;102893.19;5065476;28;20218;-73
2022/02/28 11:01:47;;;;;;;25.00;12.70;;;;;;;0.06;98.04;102885.03;5065597;28;20526;-72
2022/02/28 11:04:14;;;;;;;22.40;11.37;;;;;;;0.14;94.41;102894.00;5065692;28;20206;-73
2022/02/28 11:06:43;;;;;;;23.93;11.10;;;;;;;0.33;93.91;102892.41;5069327;28;20763;-73
2022/02/28 11:09:10;;;;;;;19.37;9.87;;;;;;;0.37;89.56;102884.94;5062233;28;20741;-73